Time;durP1;ratioP1;P1;durP2;ratioP2;P2;SDS_P1;SDS_P2;PMS_P1;PMS_P2;Temp;Humidity;BMP_temperature;BMP_pressure;BME280_temperature;BME280_humidity;BME280_pressure;Samples;Min_cycle;Max_cycle;Signal;HPM_P1;HPM_P2
2021/07/09 00:02:10;;;;;;;4.83;3.20;;;19.80;99.90;;;;;;5089858;28;20278;-73
2021/07/09 00:04:37;;;;;;;3.40;3.10;;;19.80;99.90;;;;;;5089990;28;20301;-73
2021/07/09 00:07:04;;;;;;;3.70;3.40;;;19.90;99.90;;;;;;5089623;28;20716;-73
2021/07/09 00:09:32;;;;;;;4.60;3.33;;;19.80;99.90;;;;;;5089418;28;20327;-73
2021/07/09 00:11:58;;;;;;;3.90;3.43;;;19.90;99.90;;;;;;5089767;28;20234;-73
2021/07/09 00:14:28;;;;;;;3.70;3.40;;;19.80;99.90;;;;;;5089643;28;20202;-73
2021/07/09 00:16:55;;;;;;;3.87;3.57;;;19.80;99.90;;;;;;5089864;28;20232;-72
2021/07/09 00:19:21;;;;;;;3.67;3.30;;;19.90;99.90;;;;;;5089519;28;20257;-72
2021/07/09 00:21:48;;;;;;;5.03;3.33;;;19.80;99.90;;;;;;5089446;28;20260;-73
2021/07/09 00:24:15;;;;;;;5.70;3.50;;;19.80;99.90;;;;;;5089554;28;20210;-73
2021/07/09 00:26:43;;;;;;;3.33;3.13;;;19.80;99.90;;;;;;5089511;28;20271;-72
2021/07/09 00:29:10;;;;;;;5.53;3.30;;;19.60;99.90;;;;;;5089403;28;20269;-73
2021/07/09 00:31:37;;;;;;;8.40;3.80;;;19.60;99.90;;;;;;5089175;28;20264;-72
2021/07/09 00:34:05;;;;;;;3.43;3.13;;;19.70;99.90;;;;;;5089675;28;20203;-72
2021/07/09 00:36:33;;;;;;;3.40;3.10;;;19.70;99.90;;;;;;5089049;28;20198;-73
2021/07/09 00:39:00;;;;;;;3.70;3.40;;;19.70;99.90;;;;;;5089481;28;20237;-72
2021/07/09 00:41:27;;;;;;;3.47;3.10;;;19.70;99.90;;;;;;5089261;28;20204;-72
2021/07/09 00:43:55;;;;;;;3.57;3.27;;;19.70;99.90;;;;;;5089304;28;20257;-72
2021/07/09 00:46:33;;;;;;;3.23;2.87;;;19.70;99.90;;;;;;5089166;28;20234;-72
2021/07/09 00:49:00;;;;;;;3.53;3.33;;;19.70;99.90;;;;;;5088931;28;20633;-72
2021/07/09 00:51:27;;;;;;;3.50;2.73;;;19.80;99.90;;;;;;5088964;28;20280;-72
2021/07/09 00:53:53;;;;;;;3.40;2.90;;;19.80;99.90;;;;;;5089117;28;20661;-72
2021/07/09 00:56:21;;;;;;;5.23;3.10;;;19.80;99.90;;;;;;5088649;28;20262;-72
2021/07/09 00:58:48;;;;;;;2.77;2.57;;;19.80;99.90;;;;;;5089009;28;20213;-72
2021/07/09 01:01:16;;;;;;;3.03;2.53;;;19.80;99.90;;;;;;5088739;28;20238;-72
2021/07/09 01:03:43;;;;;;;2.73;2.53;;;19.80;99.90;;;;;;5088922;28;20279;-72
2021/07/09 01:06:11;;;;;;;3.17;2.67;;;19.80;99.90;;;;;;5088854;28;20244;-72
2021/07/09 01:08:37;;;;;;;5.50;2.77;;;19.80;99.90;;;;;;5088536;28;20304;-72
2021/07/09 01:11:04;;;;;;;4.90;2.87;;;19.80;99.90;;;;;;5088756;28;20206;-73
2021/07/09 01:13:31;;;;;;;2.93;2.43;;;19.80;99.90;;;;;;5087793;28;20669;-73
2021/07/09 01:15:57;;;;;;;2.83;2.53;;;19.80;99.90;;;;;;5068399;28;20235;-72
2021/07/09 01:18:25;;;;;;;4.73;2.60;;;19.80;99.90;;;;;;5068443;28;20204;-73
2021/07/09 01:20:52;;;;;;;2.70;2.50;;;19.80;99.90;;;;;;5068328;28;20285;-72
2021/07/09 01:23:20;;;;;;;2.63;2.40;;;19.80;99.90;;;;;;5068431;28;20276;-72
2021/07/09 01:25:48;;;;;;;2.90;2.63;;;19.80;99.90;;;;;;5068097;28;20215;-72
2021/07/09 01:28:15;;;;;;;4.30;2.60;;;19.80;99.90;;;;;;5068346;28;20263;-72
2021/07/09 01:30:42;;;;;;;3.80;2.60;;;19.70;99.90;;;;;;5068287;28;20257;-72
2021/07/09 01:33:10;;;;;;;2.50;2.30;;;19.80;99.90;;;;;;5067904;28;20674;-72
2021/07/09 01:35:37;;;;;;;3.80;2.60;;;19.70;99.90;;;;;;5068311;28;20207;-72
2021/07/09 01:38:07;;;;;;;2.77;2.57;;;19.80;99.90;;;;;;5068185;28;20242;-72
2021/07/09 01:40:35;;;;;;;2.83;2.50;;;19.70;99.90;;;;;;5068056;28;20255;-72
2021/07/09 01:43:04;;;;;;;4.17;2.60;;;19.70;99.90;;;;;;5068270;28;20280;-73
2021/07/09 01:45:31;;;;;;;5.13;2.70;;;19.70;99.90;;;;;;5067962;28;20234;-73
2021/07/09 01:47:58;;;;;;;2.80;2.47;;;19.70;99.90;;;;;;5068282;28;20284;-72
2021/07/09 01:50:26;;;;;;;3.10;2.83;;;19.70;99.90;;;;;;5068356;28;20261;-73
2021/07/09 01:52:53;;;;;;;2.63;2.40;;;19.70;99.90;;;;;;5068456;28;20258;-73
2021/07/09 01:55:20;;;;;;;4.23;2.40;;;19.70;99.90;;;;;;5068118;28;20241;-73
2021/07/09 01:57:48;;;;;;;2.73;2.53;;;19.70;99.90;;;;;;5067939;28;20288;-72
2021/07/09 02:00:18;;;;;;;2.77;2.13;;;19.70;99.90;;;;;;5067963;28;20791;-72
2021/07/09 02:02:45;;;;;;;2.63;2.43;;;19.70;99.90;;;;;;5068346;28;20203;-73
2021/07/09 02:05:13;;;;;;;3.23;2.33;;;19.70;99.90;;;;;;5067849;28;20673;-72
2021/07/09 02:07:41;;;;;;;3.93;2.40;;;19.70;99.90;;;;;;5070546;28;20232;-72
2021/07/09 02:10:11;;;;;;;2.27;2.17;;;19.70;99.90;;;;;;5076869;28;20207;-73
2021/07/09 02:12:38;;;;;;;2.70;2.50;;;19.70;99.90;;;;;;5067925;28;20352;-73
2021/07/09 02:15:08;;;;;;;2.73;2.50;;;19.70;99.90;;;;;;5067896;28;20235;-74
2021/07/09 02:17:36;;;;;;;2.83;2.40;;;19.70;99.90;;;;;;5067947;28;20199;-74
2021/07/09 02:20:05;;;;;;;3.60;2.33;;;19.70;99.90;;;;;;5067877;28;20242;-74
2021/07/09 02:22:32;;;;;;;3.83;2.43;;;19.70;99.90;;;;;;5067726;28;20274;-74
2021/07/09 02:24:58;;;;;;;2.77;2.53;;;19.70;99.90;;;;;;5067867;28;20249;-74
2021/07/09 02:27:25;;;;;;;3.07;2.80;;;19.70;99.90;;;;;;5067719;28;20239;-73
2021/07/09 02:29:53;;;;;;;2.90;2.70;;;19.70;99.90;;;;;;5067510;28;20239;-74
2021/07/09 02:32:20;;;;;;;4.53;2.47;;;19.70;99.90;;;;;;5067662;28;20294;-72
2021/07/09 02:34:48;;;;;;;3.40;3.10;;;19.60;99.90;;;;;;5082354;28;20230;-72
2021/07/09 02:37:14;;;;;;;5.57;2.97;;;19.60;99.90;;;;;;5087858;28;20203;-73
2021/07/09 02:39:41;;;;;;;3.40;3.10;;;19.60;99.90;;;;;;5087507;28;20226;-73
2021/07/09 02:42:08;;;;;;;3.53;2.90;;;19.50;99.90;;;;;;5087312;28;20294;-73
2021/07/09 02:44:36;;;;;;;4.13;2.97;;;19.50;99.90;;;;;;5087355;28;20217;-72
2021/07/09 02:47:03;;;;;;;3.20;2.90;;;19.50;99.90;;;;;;5090417;28;20238;-72
2021/07/09 02:49:30;;;;;;;6.47;2.87;;;19.50;99.90;;;;;;5090836;28;20277;-73
2021/07/09 02:51:57;;;;;;;3.77;2.60;;;19.50;99.90;;;;;;5088397;28;20210;-73
2021/07/09 02:54:24;;;;;;;3.83;2.90;;;19.50;99.90;;;;;;5088758;28;20246;-73
2021/07/09 02:56:51;;;;;;;3.53;2.93;;;19.40;99.90;;;;;;5089178;28;20920;-73
2021/07/09 02:59:18;;;;;;;3.33;3.03;;;19.50;99.90;;;;;;5089498;28;20238;-73
2021/07/09 03:01:44;;;;;;;5.13;3.37;;;19.50;99.90;;;;;;5089493;28;20283;-73
2021/07/09 03:04:13;;;;;;;4.83;3.13;;;19.50;99.90;;;;;;5089159;28;20230;-73
2021/07/09 03:06:40;;;;;;;4.27;3.07;;;19.50;99.90;;;;;;5089036;28;20242;-72
2021/07/09 03:09:09;;;;;;;6.03;3.43;;;19.50;99.90;;;;;;5088453;28;20318;-73
2021/07/09 03:11:36;;;;;;;3.53;3.23;;;19.50;99.90;;;;;;5088603;28;20243;-74
2021/07/09 03:14:03;;;;;;;5.70;3.40;;;19.60;99.90;;;;;;5088492;28;20285;-72
2021/07/09 03:16:30;;;;;;;2.97;2.77;;;19.60;99.90;;;;;;5088424;28;20230;-73
2021/07/09 03:18:57;;;;;;;4.67;3.20;;;19.60;99.90;;;;;;5088698;28;20241;-73
2021/07/09 03:21:26;;;;;;;3.07;2.63;;;19.60;99.90;;;;;;5088364;28;20326;-74
2021/07/09 03:23:53;;;;;;;4.80;2.93;;;19.50;99.90;;;;;;5088457;28;20242;-74
2021/07/09 03:26:21;;;;;;;5.23;2.60;;;19.60;99.90;;;;;;5088311;28;20207;-75
2021/07/09 03:28:47;;;;;;;4.13;2.53;;;19.50;99.90;;;;;;5088228;28;20661;-73
2021/07/09 03:31:14;;;;;;;5.03;2.87;;;19.40;99.90;;;;;;5086486;28;20226;-73
2021/07/09 03:33:41;;;;;;;4.73;2.73;;;19.40;99.90;;;;;;5085248;28;20210;-73
2021/07/09 03:36:07;;;;;;;6.13;2.93;;;19.30;99.90;;;;;;5089699;28;20218;-73
2021/07/09 03:38:34;;;;;;;2.60;2.40;;;19.20;99.90;;;;;;5089909;28;20246;-73
2021/07/09 03:41:01;;;;;;;4.10;2.80;;;19.20;99.90;;;;;;5090280;28;20711;-73
2021/07/09 03:43:28;;;;;;;4.63;2.77;;;19.20;99.90;;;;;;5090301;28;20256;-73
2021/07/09 03:45:55;;;;;;;3.37;2.87;;;19.10;99.90;;;;;;5090315;28;20252;-73
2021/07/09 03:48:22;;;;;;;4.00;2.70;;;19.10;99.90;;;;;;5090124;28;20279;-73
2021/07/09 03:50:49;;;;;;;3.00;2.70;;;19.20;99.90;;;;;;5090269;28;20256;-73
2021/07/09 03:53:15;;;;;;;5.43;2.70;;;19.20;99.90;;;;;;5090027;28;20281;-73
2021/07/09 03:55:42;;;;;;;4.83;2.90;;;19.10;99.90;;;;;;5089782;28;20230;-73
2021/07/09 03:58:09;;;;;;;5.80;2.70;;;19.10;99.90;;;;;;5090042;28;20710;-73
2021/07/09 04:00:37;;;;;;;2.77;2.57;;;19.10;99.90;;;;;;5090030;28;20530;-73
2021/07/09 04:03:04;;;;;;;7.00;2.50;;;19.20;99.90;;;;;;5090098;28;20626;-73
2021/07/09 04:05:31;;;;;;;4.37;2.70;;;19.10;99.90;;;;;;5089915;28;20312;-73
2021/07/09 04:08:00;;;;;;;3.40;2.40;;;19.20;99.90;;;;;;5089758;28;20203;-73
2021/07/09 04:10:29;;;;;;;4.07;2.60;;;19.20;99.90;;;;;;5089614;28;20303;-73
2021/07/09 04:12:56;;;;;;;6.70;2.80;;;19.30;99.90;;;;;;5089859;28;20237;-73
2021/07/09 04:15:22;;;;;;;4.47;2.90;;;19.30;99.90;;;;;;5089675;28;20218;-73
2021/07/09 04:17:51;;;;;;;3.10;2.80;;;19.40;99.90;;;;;;5090023;28;20246;-73
2021/07/09 04:20:18;;;;;;;3.43;3.07;;;19.40;99.90;;;;;;5089601;28;20262;-73
2021/07/09 04:22:44;;;;;;;5.07;3.10;;;19.40;99.90;;;;;;5089492;28;20211;-73
2021/07/09 04:25:12;;;;;;;3.30;2.47;;;19.30;99.90;;;;;;5089622;28;20284;-73
2021/07/09 04:27:41;;;;;;;7.43;3.90;;;19.40;99.90;;;;;;5089327;28;20288;-73
2021/07/09 04:30:11;;;;;;;5.30;3.70;;;19.30;99.90;;;;;;5089395;28;20317;-73
2021/07/09 04:32:38;;;;;;;4.83;3.10;;;19.30;99.90;;;;;;5088997;28;20198;-73
2021/07/09 04:35:07;;;;;;;4.57;3.00;;;19.30;99.90;;;;;;5089460;28;20210;-73
2021/07/09 04:37:34;;;;;;;4.47;3.20;;;19.30;99.90;;;;;;5089371;28;20203;-73
2021/07/09 04:40:01;;;;;;;9.40;3.10;;;19.40;99.90;;;;;;5089422;28;20203;-73
2021/07/09 04:42:28;;;;;;;5.00;3.73;;;19.40;99.90;;;;;;5089162;28;20242;-73
2021/07/09 04:44:54;;;;;;;3.73;3.30;;;19.30;99.90;;;;;;5089469;28;20263;-73
2021/07/09 04:47:21;;;;;;;4.90;3.53;;;19.40;99.90;;;;;;5088878;28;20677;-73
2021/07/09 04:49:48;;;;;;;4.67;3.77;;;19.40;99.90;;;;;;5088855;28;20234;-73
2021/07/09 04:52:16;;;;;;;5.47;3.50;;;19.40;99.90;;;;;;5089199;28;20231;-73
2021/07/09 04:54:42;;;;;;;4.50;3.70;;;19.30;99.90;;;;;;5088815;28;20247;-73
2021/07/09 04:57:09;;;;;;;5.80;3.20;;;19.30;99.90;;;;;;5088873;28;20273;-73
2021/07/09 04:59:35;;;;;;;6.27;3.50;;;19.30;99.90;;;;;;5089032;28;20264;-72
2021/07/09 05:02:02;;;;;;;5.70;3.87;;;19.30;99.90;;;;;;5088823;28;20241;-73
2021/07/09 05:04:29;;;;;;;7.73;3.60;;;19.30;99.90;;;;;;5088414;28;20272;-73
2021/07/09 05:06:55;;;;;;;6.43;3.70;;;19.30;99.90;;;;;;5088759;28;20238;-73
2021/07/09 05:09:23;;;;;;;3.60;3.40;;;19.40;99.90;;;;;;5087959;28;20278;-73
2021/07/09 05:11:50;;;;;;;5.47;4.20;;;19.40;99.90;;;;;;5088719;28;20260;-73
2021/07/09 05:14:16;;;;;;;6.80;3.90;;;19.40;99.90;;;;;;5088893;28;20233;-73
2021/07/09 05:16:43;;;;;;;4.93;4.03;;;19.40;99.90;;;;;;5088519;28;20283;-72
2021/07/09 05:19:10;;;;;;;4.70;4.40;;;19.40;99.90;;;;;;5088864;28;20242;-73
2021/07/09 05:21:36;;;;;;;4.90;4.00;;;19.40;99.90;;;;;;5088234;28;20223;-73
2021/07/09 05:24:06;;;;;;;4.33;4.00;;;19.40;99.90;;;;;;5088606;28;20256;-73
2021/07/09 05:26:35;;;;;;;7.37;4.53;;;19.40;99.90;;;;;;5088075;28;20542;-72
2021/07/09 05:29:01;;;;;;;6.67;4.73;;;19.40;99.90;;;;;;5088281;28;20229;-73
2021/07/09 05:31:28;;;;;;;5.53;4.70;;;19.50;99.90;;;;;;5086854;28;20599;-73
2021/07/09 05:33:55;;;;;;;5.27;4.73;;;19.50;99.90;;;;;;5087949;28;20784;-73
2021/07/09 05:36:22;;;;;;;5.10;4.70;;;19.50;99.90;;;;;;5087975;28;20733;-73
2021/07/09 05:38:49;;;;;;;4.90;4.50;;;19.50;99.90;;;;;;5088244;28;20207;-73
2021/07/09 05:41:15;;;;;;;4.63;4.23;;;19.60;99.90;;;;;;5088116;28;20657;-73
2021/07/09 05:43:44;;;;;;;4.47;4.13;;;19.50;99.90;;;;;;5088241;28;20230;-73
2021/07/09 05:46:11;;;;;;;4.37;4.07;;;19.50;99.90;;;;;;5088349;28;20292;-73
2021/07/09 05:48:38;;;;;;;4.77;4.37;;;19.50;99.90;;;;;;5088248;28;20210;-73
2021/07/09 05:51:04;;;;;;;5.20;4.70;;;19.50;99.90;;;;;;5088386;28;20280;-73
2021/07/09 05:53:31;;;;;;;5.70;5.30;;;19.60;99.90;;;;;;5088139;28;20257;-73
2021/07/09 05:55:58;;;;;;;6.27;4.80;;;19.40;99.90;;;;;;5088242;28;20231;-73
2021/07/09 05:58:25;;;;;;;5.03;4.60;;;19.40;99.90;;;;;;5088316;28;20240;-73
2021/07/09 06:00:53;;;;;;;4.50;4.20;;;19.30;99.90;;;;;;5088098;28;20308;-72
2021/07/09 06:03:19;;;;;;;4.80;4.50;;;19.40;99.90;;;;;;5088302;28;20235;-73
2021/07/09 06:05:46;;;;;;;6.07;4.97;;;19.40;99.90;;;;;;5088038;28;20233;-73
2021/07/09 06:08:13;;;;;;;5.03;4.73;;;19.40;99.90;;;;;;5087687;28;20262;-73
2021/07/09 06:10:39;;;;;;;4.27;4.07;;;19.40;99.90;;;;;;5087816;28;20276;-73
2021/07/09 06:13:07;;;;;;;4.93;4.53;;;19.40;99.90;;;;;;5088221;28;20207;-73
2021/07/09 06:15:34;;;;;;;8.50;4.87;;;19.40;99.90;;;;;;5087945;28;20272;-73
2021/07/09 06:18:02;;;;;;;4.87;4.40;;;19.50;99.90;;;;;;5088384;28;20293;-73
2021/07/09 06:20:28;;;;;;;4.77;4.47;;;19.50;99.90;;;;;;5090125;28;20223;-73
2021/07/09 06:22:55;;;;;;;4.80;4.40;;;19.50;99.90;;;;;;5092140;28;20300;-73
2021/07/09 06:25:22;;;;;;;5.00;4.50;;;19.50;99.90;;;;;;5091580;28;20249;-73
2021/07/09 06:27:49;;;;;;;4.50;4.20;;;19.50;99.90;;;;;;5091691;28;20246;-73
2021/07/09 06:30:17;;;;;;;4.47;4.20;;;19.50;99.90;;;;;;5091676;28;20303;-73
2021/07/09 06:32:43;;;;;;;4.77;4.40;;;19.50;99.90;;;;;;5091548;28;20260;-72
2021/07/09 06:35:11;;;;;;;4.30;4.00;;;19.60;99.90;;;;;;5091723;28;20230;-73
2021/07/09 06:37:38;;;;;;;5.07;4.57;;;19.60;99.90;;;;;;5091245;28;20256;-72
2021/07/09 06:40:08;;;;;;;4.83;4.43;;;19.60;99.90;;;;;;5091190;28;20215;-73
2021/07/09 06:42:35;;;;;;;5.23;4.67;;;19.60;99.90;;;;;;5091337;28;20236;-73
2021/07/09 06:45:01;;;;;;;4.83;4.40;;;19.60;99.90;;;;;;5091346;28;20198;-73
2021/07/09 06:47:28;;;;;;;5.20;4.73;;;19.60;99.90;;;;;;5091522;28;20199;-73
2021/07/09 06:49:55;;;;;;;5.47;5.10;;;19.60;99.90;;;;;;5091313;28;20303;-73
2021/07/09 06:52:23;;;;;;;6.13;5.53;;;19.60;99.90;;;;;;5091331;28;20210;-73
2021/07/09 06:54:49;;;;;;;5.73;5.17;;;19.60;99.90;;;;;;5091094;28;20234;-73
2021/07/09 06:57:16;;;;;;;6.60;6.07;;;19.60;99.90;;;;;;5091217;28;20238;-73
2021/07/09 06:59:44;;;;;;;6.37;5.70;;;19.60;99.90;;;;;;5091097;28;20217;-73
2021/07/09 07:02:12;;;;;;;6.40;5.90;;;19.60;99.90;;;;;;5091082;28;20207;-73
2021/07/09 07:04:39;;;;;;;6.40;5.90;;;19.50;99.90;;;;;;5090681;28;20729;-73
2021/07/09 07:07:06;;;;;;;6.37;5.73;;;19.50;99.90;;;;;;5091087;28;20234;-73
2021/07/09 07:09:37;;;;;;;6.23;5.60;;;19.50;99.90;;;;;;5090389;28;20266;-73
2021/07/09 07:12:05;;;;;;;6.47;5.87;;;19.50;99.90;;;;;;5090993;28;20195;-73
2021/07/09 07:14:31;;;;;;;6.13;5.73;;;19.50;99.90;;;;;;5090696;28;20246;-73
2021/07/09 07:16:58;;;;;;;6.87;6.17;;;19.50;99.90;;;;;;5090642;28;20239;-73
2021/07/09 07:19:25;;;;;;;7.03;6.33;;;19.50;99.90;;;;;;5090819;28;20230;-73
2021/07/09 07:21:52;;;;;;;6.70;6.30;;;19.50;99.90;;;;;;5090565;28;20227;-73
2021/07/09 07:24:19;;;;;;;6.77;6.37;;;19.50;99.90;;;;;;5090803;28;20239;-73
2021/07/09 07:26:47;;;;;;;7.13;6.63;;;19.50;99.90;;;;;;5090476;28;20203;-73
2021/07/09 07:29:13;;;;;;;6.90;6.50;;;19.50;99.90;;;;;;5090542;28;20327;-73
2021/07/09 07:31:40;;;;;;;7.60;7.10;;;19.50;99.90;;;;;;5089638;28;20234;-72
2021/07/09 07:34:07;;;;;;;7.53;7.07;;;19.60;99.90;;;;;;5090552;28;20272;-73
2021/07/09 07:36:33;;;;;;;7.63;7.13;;;19.60;99.90;;;;;;5090505;28;20254;-73
2021/07/09 07:39:00;;;;;;;7.20;6.50;;;19.60;99.90;;;;;;5090461;28;20242;-73
2021/07/09 07:41:26;;;;;;;7.00;6.60;;;19.60;99.90;;;;;;5089889;28;20652;-73
2021/07/09 07:43:54;;;;;;;8.23;6.83;;;19.60;99.90;;;;;;5090199;28;20765;-73
2021/07/09 07:46:21;;;;;;;7.63;6.90;;;19.60;99.90;;;;;;5090263;28;20245;-73
2021/07/09 07:48:47;;;;;;;7.33;6.83;;;19.70;99.90;;;;;;5089919;28;20238;-73
2021/07/09 07:51:14;;;;;;;7.63;7.03;;;19.70;99.90;;;;;;5089967;28;20226;-72
2021/07/09 07:53:41;;;;;;;8.03;7.50;;;19.70;99.90;;;;;;5090126;28;20214;-73
2021/07/09 07:56:08;;;;;;;7.67;7.10;;;19.70;99.90;;;;;;5090032;28;20219;-73
2021/07/09 07:58:35;;;;;;;7.53;6.97;;;19.80;99.90;;;;;;5090076;28;20290;-73
2021/07/09 08:01:03;;;;;;;8.17;7.47;;;19.80;99.90;;;;;;5090052;28;20210;-73
2021/07/09 08:03:29;;;;;;;7.97;7.47;;;19.70;99.90;;;;;;5090352;28;20288;-73
2021/07/09 08:05:56;;;;;;;8.27;7.57;;;19.70;99.90;;;;;;5089524;28;20726;-73
2021/07/09 08:08:23;;;;;;;8.50;7.80;;;19.80;99.90;;;;;;5089428;28;20945;-73
2021/07/09 08:10:49;;;;;;;8.73;7.83;;;19.80;99.90;;;;;;5089446;28;20723;-73
2021/07/09 08:13:16;;;;;;;8.93;8.27;;;19.80;99.90;;;;;;5089685;28;20230;-73
2021/07/09 08:15:43;;;;;;;8.17;7.67;;;19.90;99.90;;;;;;5089315;28;20218;-72
2021/07/09 08:18:11;;;;;;;8.17;7.67;;;19.90;99.90;;;;;;5089695;28;20238;-73
2021/07/09 08:20:38;;;;;;;8.10;7.60;;;20.00;99.90;;;;;;5089717;28;20273;-73
2021/07/09 08:23:04;;;;;;;8.03;7.40;;;20.00;99.90;;;;;;5089638;28;20297;-71
2021/07/09 08:25:31;;;;;;;8.10;7.40;;;20.00;99.90;;;;;;5089677;28;20237;-73
2021/07/09 08:27:58;;;;;;;7.60;7.10;;;20.10;99.90;;;;;;5089392;28;20210;-73
2021/07/09 08:30:24;;;;;;;6.97;6.40;;;20.10;99.90;;;;;;5089068;28;20280;-73
2021/07/09 08:32:51;;;;;;;7.40;6.90;;;20.10;99.90;;;;;;5089213;28;20206;-72
2021/07/09 08:35:19;;;;;;;7.80;7.20;;;20.10;99.90;;;;;;5089429;28;20242;-73
2021/07/09 08:37:45;;;;;;;7.63;7.03;;;20.10;99.90;;;;;;5088949;28;20234;-73
2021/07/09 08:40:13;;;;;;;7.30;6.80;;;20.10;99.90;;;;;;5088825;28;20249;-72
2021/07/09 08:42:40;;;;;;;7.83;6.97;;;20.10;99.90;;;;;;5088779;28;20238;-73
2021/07/09 08:45:08;;;;;;;7.43;7.00;;;20.20;99.90;;;;;;5089069;28;20230;-73
2021/07/09 08:47:35;;;;;;;6.87;6.47;;;20.20;99.90;;;;;;5089027;28;20207;-72
2021/07/09 08:50:04;;;;;;;6.60;6.00;;;20.20;99.90;;;;;;5089015;28;20287;-73
2021/07/09 08:52:35;;;;;;;6.30;5.80;;;20.20;99.90;;;;;;5089226;28;20244;-73
2021/07/09 08:55:02;;;;;;;6.23;5.63;;;20.10;99.90;;;;;;5089126;28;20227;-73
2021/07/09 08:57:29;;;;;;;6.70;6.30;;;20.20;99.90;;;;;;5089047;28;20211;-73
2021/07/09 08:59:55;;;;;;;6.47;5.93;;;20.20;99.90;;;;;;5088826;28;20207;-73
2021/07/09 09:02:26;;;;;;;6.80;6.30;;;20.30;99.90;;;;;;5088855;28;20211;-73
2021/07/09 09:04:55;;;;;;;6.60;6.10;;;20.30;99.90;;;;;;5088941;28;20209;-73
2021/07/09 09:07:21;;;;;;;7.17;6.57;;;20.40;99.90;;;;;;5088762;28;20215;-73
2021/07/09 09:09:53;;;;;;;6.50;6.00;;;20.50;99.90;;;;;;5088077;28;20238;-73
2021/07/09 09:12:20;;;;;;;6.33;5.93;;;20.50;99.90;;;;;;5088702;28;20219;-73
2021/07/09 09:14:49;;;;;;;7.00;6.10;;;20.50;99.90;;;;;;5088453;28;20209;-73
2021/07/09 09:17:28;;;;;;;6.50;6.00;;;20.60;99.90;;;;;;5088523;28;20292;-72
2021/07/09 09:20:06;;;;;;;6.17;5.80;;;20.60;99.90;;;;;;5088409;28;20218;-73
2021/07/09 09:22:34;;;;;;;6.43;6.03;;;20.60;99.90;;;;;;5088671;28;20218;-73
2021/07/09 09:25:02;;;;;;;6.20;5.83;;;20.60;99.90;;;;;;5088412;28;20306;-73
2021/07/09 09:27:29;;;;;;;6.40;5.90;;;20.60;99.90;;;;;;5088597;28;20319;-73
2021/07/09 09:29:55;;;;;;;6.83;6.33;;;20.60;99.90;;;;;;5088143;28;20234;-73
2021/07/09 09:32:22;;;;;;;11.63;6.23;;;20.60;99.90;;;;;;5088583;28;20585;-73
2021/07/09 09:34:50;;;;;;;12.03;6.03;;;20.60;99.90;;;;;;5088295;28;20271;-73
2021/07/09 09:37:19;;;;;;;6.33;5.73;;;20.60;99.90;;;;;;5088676;28;20291;-73
2021/07/09 09:39:48;;;;;;;6.23;5.80;;;20.60;99.90;;;;;;5088346;28;20233;-73
2021/07/09 09:42:19;;;;;;;6.03;5.60;;;20.60;99.90;;;;;;5088476;28;20249;-73
2021/07/09 09:44:46;;;;;;;6.77;6.17;;;20.60;99.90;;;;;;5088447;28;20198;-73
2021/07/09 09:47:15;;;;;;;6.60;6.00;;;20.60;99.90;;;;;;5088096;28;20689;-72
2021/07/09 09:49:43;;;;;;;6.37;5.87;;;20.70;99.90;;;;;;5088256;28;20610;-73
2021/07/09 09:52:10;;;;;;;5.93;5.53;;;20.70;99.90;;;;;;5087649;28;20744;-73
2021/07/09 09:54:36;;;;;;;7.37;5.27;;;20.60;99.90;;;;;;5088899;28;20207;-73
2021/07/09 09:57:06;;;;;;;5.53;5.13;;;20.60;99.90;;;;;;5092090;28;20230;-73
2021/07/09 09:59:34;;;;;;;5.83;5.47;;;20.60;99.90;;;;;;5092082;28;20202;-73
2021/07/09 10:02:04;;;;;;;6.50;5.90;;;20.60;99.90;;;;;;5091950;28;20292;-73
2021/07/09 10:04:34;;;;;;;5.73;5.37;;;20.60;99.90;;;;;;5092134;28;20582;-73
2021/07/09 10:07:03;;;;;;;5.77;5.17;;;20.60;99.90;;;;;;5092180;28;20226;-73
2021/07/09 10:09:30;;;;;;;5.27;4.87;;;20.70;99.90;;;;;;5091760;28;20235;-73
2021/07/09 10:11:58;;;;;;;5.40;4.97;;;20.70;99.90;;;;;;5091994;28;20234;-73
2021/07/09 10:14:27;;;;;;;5.43;5.00;;;20.70;99.90;;;;;;5091997;28;20561;-73
2021/07/09 10:17:01;;;;;;;7.00;5.27;;;20.60;99.90;;;;;;5091893;28;20211;-72
2021/07/09 10:19:29;;;;;;;5.80;5.40;;;20.60;99.90;;;;;;5092169;28;20282;-73
2021/07/09 10:21:56;;;;;;;5.67;5.17;;;20.60;99.90;;;;;;5091695;28;20234;-73
2021/07/09 10:24:23;;;;;;;5.80;5.40;;;20.60;99.90;;;;;;5091779;28;20231;-73
2021/07/09 10:26:51;;;;;;;5.80;5.30;;;20.60;99.90;;;;;;5091481;28;20198;-73
2021/07/09 10:29:20;;;;;;;5.47;5.07;;;20.60;99.90;;;;;;5091744;28;20221;-72
2021/07/09 10:31:48;;;;;;;5.83;5.10;;;20.70;99.90;;;;;;5091574;28;20267;-72
2021/07/09 10:34:33;;;;;;;5.70;5.20;;;20.70;99.90;;;;;;5091716;28;20203;-72
2021/07/09 10:37:02;;;;;;;5.33;5.03;;;20.70;99.90;;;;;;5091544;28;20202;-73
2021/07/09 10:39:33;;;;;;;5.53;4.97;;;20.80;99.90;;;;;;5091651;28;20207;-72
2021/07/09 10:42:16;;;;;;;5.60;5.20;;;20.80;99.90;;;;;;5091236;28;20242;-73
2021/07/09 10:45:09;;;;;;;5.50;5.00;;;20.80;99.90;;;;;;5091138;28;20237;-73
2021/07/09 10:47:38;;;;;;;5.40;4.90;;;20.70;99.90;;;;;;5090982;28;20764;-72
2021/07/09 10:50:06;;;;;;;5.63;5.13;;;20.70;99.90;;;;;;5091266;28;20238;-73
2021/07/09 10:52:58;;;;;;;4.83;4.53;;;20.70;99.90;;;;;;5091374;28;20292;-72
2021/07/09 10:55:46;;;;;;;5.50;5.13;;;20.70;99.90;;;;;;5091153;28;20321;-71
2021/07/09 10:58:27;;;;;;;5.50;5.00;;;20.70;99.90;;;;;;5091106;28;20252;-71
2021/07/09 11:00:56;;;;;;;5.53;5.00;;;20.70;99.90;;;;;;5091188;28;20199;-72
2021/07/09 11:03:25;;;;;;;5.00;4.60;;;20.70;99.90;;;;;;5091401;28;20211;-72
2021/07/09 11:05:58;;;;;;;4.63;4.33;;;20.70;99.90;;;;;;5089866;28;20207;-72
2021/07/09 11:09:01;;;;;;;5.10;4.80;;;20.70;99.90;;;;;;5090742;28;20658;-72
2021/07/09 11:11:47;;;;;;;5.33;4.93;;;20.60;99.90;;;;;;5090565;28;20726;-71
2021/07/09 11:14:20;;;;;;;5.30;4.80;;;20.60;99.90;;;;;;5090798;28;20191;-72
2021/07/09 11:16:48;;;;;;;4.70;4.40;;;20.60;99.90;;;;;;5090794;28;20229;-72
2021/07/09 11:19:17;;;;;;;5.33;4.97;;;20.60;99.90;;;;;;5090759;28;20207;-72
2021/07/09 11:21:49;;;;;;;6.50;5.43;;;20.50;99.90;;;;;;5090599;28;20210;-72
2021/07/09 11:24:18;;;;;;;5.50;5.10;;;20.50;99.90;;;;;;5090683;28;20199;-72
2021/07/09 11:26:46;;;;;;;5.67;5.17;;;20.50;99.90;;;;;;5090547;28;20451;-72
2021/07/09 11:29:31;;;;;;;5.47;5.10;;;20.50;99.90;;;;;;5090572;28;20199;-71
2021/07/09 11:32:00;;;;;;;5.90;5.30;;;20.50;99.90;;;;;;5090448;28;20246;-71
2021/07/09 11:34:29;;;;;;;5.80;5.33;;;20.50;99.90;;;;;;5090599;28;20294;-72
2021/07/09 11:36:59;;;;;;;6.03;5.63;;;20.50;99.90;;;;;;5090116;28;20211;-71
2021/07/09 11:39:27;;;;;;;6.20;5.60;;;20.50;99.90;;;;;;5090529;28;20186;-72
2021/07/09 11:42:03;;;;;;;5.10;4.73;;;20.50;99.90;;;;;;5090022;28;20544;-72
2021/07/09 11:44:32;;;;;;;5.57;5.07;;;20.50;99.90;;;;;;5090442;28;20195;-72
2021/07/09 11:47:00;;;;;;;5.10;4.70;;;20.60;99.90;;;;;;5090093;28;20571;-72
2021/07/09 11:49:29;;;;;;;5.10;4.80;;;20.50;99.90;;;;;;5089973;28;20214;-72
2021/07/09 11:51:59;;;;;;;5.43;5.00;;;20.60;99.90;;;;;;5089972;28;20260;-71
2021/07/09 11:54:28;;;;;;;5.03;4.50;;;20.60;99.90;;;;;;5089895;28;20207;-72
2021/07/09 11:56:58;;;;;;;4.40;4.20;;;20.60;99.90;;;;;;5090091;28;20268;-72
2021/07/09 11:59:26;;;;;;;4.47;4.17;;;20.60;99.90;;;;;;5090142;28;20203;-72
2021/07/09 12:02:10;;;;;;;5.20;4.73;;;20.60;99.90;;;;;;5089954;28;20207;-72
2021/07/09 12:04:39;;;;;;;5.20;4.80;;;20.60;99.90;;;;;;5089808;28;20206;-72
2021/07/09 12:07:26;;;;;;;4.77;4.47;;;20.60;99.90;;;;;;5089996;28;20580;-72
2021/07/09 12:09:55;;;;;;;4.47;4.17;;;20.60;99.90;;;;;;5089540;28;20242;-71
2021/07/09 12:12:23;;;;;;;4.80;4.40;;;20.60;99.90;;;;;;5089782;28;20235;-72
2021/07/09 12:14:56;;;;;;;4.90;4.50;;;20.60;99.90;;;;;;5089896;28;20202;-72
2021/07/09 12:17:24;;;;;;;5.00;4.30;;;20.60;99.90;;;;;;5089527;28;20198;-72
2021/07/09 12:20:06;;;;;;;3.90;3.70;;;20.60;99.90;;;;;;5089528;28;20222;-72
2021/07/09 12:22:35;;;;;;;3.37;3.17;;;20.60;99.90;;;;;;5089966;28;20597;-72
2021/07/09 12:25:04;;;;;;;3.70;3.40;;;20.60;99.90;;;;;;5089612;28;20256;-72
2021/07/09 12:27:32;;;;;;;3.30;3.07;;;20.60;99.90;;;;;;5089447;28;20294;-72
2021/07/09 12:30:03;;;;;;;4.50;2.90;;;20.60;99.90;;;;;;5089460;28;20203;-72
2021/07/09 12:32:30;;;;;;;2.80;2.70;;;20.60;99.90;;;;;;5089427;28;20218;-72
2021/07/09 12:35:08;;;;;;;2.90;2.80;;;20.70;99.90;;;;;;5089270;28;20260;-71
2021/07/09 12:37:36;;;;;;;4.93;3.50;;;20.70;99.90;;;;;;5088800;28;20207;-72
2021/07/09 12:40:15;;;;;;;2.57;2.40;;;20.70;99.90;;;;;;5088857;28;20206;-72
2021/07/09 12:42:42;;;;;;;2.50;2.40;;;20.70;99.90;;;;;;5089302;28;20225;-72
2021/07/09 12:45:09;;;;;;;2.93;2.73;;;20.70;99.90;;;;;;5088732;28;20575;-72
2021/07/09 12:47:50;;;;;;;2.70;2.50;;;20.60;99.90;;;;;;5089197;28;20207;-72
2021/07/09 12:50:21;;;;;;;2.50;2.40;;;20.60;99.90;;;;;;5088828;28;20617;-72
2021/07/09 12:52:50;;;;;;;2.47;2.23;;;20.50;99.90;;;;;;5088932;28;20218;-72
2021/07/09 12:55:40;;;;;;;2.50;2.40;;;20.50;99.90;;;;;;5089091;28;20223;-72